sensor_id;sensor_type;location;lat;lon;timestamp;pressure;altitude;pressure_sealevel;temperature;humidity
53522;BME280;39398;48.382;9.802;2022-07-30T00:00:21;93925.03;;;16.18;92.49
53522;BME280;39398;48.382;9.802;2022-07-30T00:01:27;93927.53;;;16.13;92.23
53522;BME280;39398;48.382;9.802;2022-07-30T00:02:28;93933.81;;;16.18;92.18
53522;BME280;39398;48.382;9.802;2022-07-30T00:03:31;93941.38;;;16.21;91.86
53522;BME280;39398;48.382;9.802;2022-07-30T00:04:33;93937.47;;;16.36;91.07
53522;BME280;39398;48.382;9.802;2022-07-30T00:05:34;93937.81;;;16.39;90.59
53522;BME280;39398;48.382;9.802;2022-07-30T00:06:36;93932.28;;;16.41;90.32
53522;BME280;39398;48.382;9.802;2022-07-30T00:07:37;93936.38;;;16.55;89.88
53522;BME280;39398;48.382;9.802;2022-07-30T00:08:39;93943.31;;;16.44;89.65
53522;BME280;39398;48.382;9.802;2022-07-30T00:09:40;93941.22;;;16.46;89.44
53522;BME280;39398;48.382;9.802;2022-07-30T00:10:42;93937.38;;;16.42;89.29
53522;BME280;39398;48.382;9.802;2022-07-30T00:11:46;93936.41;;;16.37;89.43
53522;BME280;39398;48.382;9.802;2022-07-30T00:12:47;93940.59;;;16.33;89.49
53522;BME280;39398;48.382;9.802;2022-07-30T00:13:49;93938.88;;;16.38;89.13
53522;BME280;39398;48.382;9.802;2022-07-30T00:14:50;93934.84;;;16.17;89.41
53522;BME280;39398;48.382;9.802;2022-07-30T00:15:53;93934.44;;;16.32;89.34
53522;BME280;39398;48.382;9.802;2022-07-30T00:16:55;93933.75;;;16.25;89.19
53522;BME280;39398;48.382;9.802;2022-07-30T00:17:57;93929.84;;;16.39;88.94
53522;BME280;39398;48.382;9.802;2022-07-30T00:19:00;93934.72;;;16.42;88.39
53522;BME280;39398;48.382;9.802;2022-07-30T00:20:03;93932.75;;;16.38;88.32
53522;BME280;39398;48.382;9.802;2022-07-30T00:21:05;93938.81;;;16.26;88.69
53522;BME280;39398;48.382;9.802;2022-07-30T00:22:07;93931.72;;;16.20;88.98
53522;BME280;39398;48.382;9.802;2022-07-30T00:23:08;93930.38;;;16.30;88.65
53522;BME280;39398;48.382;9.802;2022-07-30T00:24:10;93937.03;;;16.39;88.42
53522;BME280;39398;48.382;9.802;2022-07-30T00:25:11;93932.75;;;16.38;88.53
53522;BME280;39398;48.382;9.802;2022-07-30T00:26:13;93933.91;;;16.42;88.16
53522;BME280;39398;48.382;9.802;2022-07-30T00:27:14;93931.34;;;16.35;87.76
53522;BME280;39398;48.382;9.802;2022-07-30T00:28:16;93932.84;;;16.43;87.58
53522;BME280;39398;48.382;9.802;2022-07-30T00:29:17;93934.50;;;16.44;87.48
53522;BME280;39398;48.382;9.802;2022-07-30T00:30:19;93934.50;;;16.44;87.48
53522;BME280;39398;48.382;9.802;2022-07-30T00:31:20;93931.25;;;16.42;87.19
53522;BME280;39398;48.382;9.802;2022-07-30T00:32:23;93931.94;;;16.37;87.58
53522;BME280;39398;48.382;9.802;2022-07-30T00:33:24;93934.19;;;16.22;87.73
53522;BME280;39398;48.382;9.802;2022-07-30T00:34:26;93928.97;;;16.27;87.73
53522;BME280;39398;48.382;9.802;2022-07-30T00:35:27;93931.25;;;16.42;87.03
53522;BME280;39398;48.382;9.802;2022-07-30T00:36:29;93925.56;;;16.38;86.83
53522;BME280;39398;48.382;9.802;2022-07-30T00:37:30;93930.84;;;16.26;87.10
53522;BME280;39398;48.382;9.802;2022-07-30T00:38:32;93929.91;;;16.21;87.25
53522;BME280;39398;48.382;9.802;2022-07-30T00:39:33;93930.16;;;16.31;87.07
53522;BME280;39398;48.382;9.802;2022-07-30T00:40:35;93925.19;;;16.35;87.01
53522;BME280;39398;48.382;9.802;2022-07-30T00:41:52;93925.28;;;16.28;87.05
53522;BME280;39398;48.382;9.802;2022-07-30T00:42:53;93926.41;;;16.20;87.30
53522;BME280;39398;48.382;9.802;2022-07-30T00:43:55;93929.13;;;16.32;87.13
53522;BME280;39398;48.382;9.802;2022-07-30T00:44:56;93926.41;;;16.20;87.23
53522;BME280;39398;48.382;9.802;2022-07-30T00:45:58;93923.97;;;16.19;87.12
53522;BME280;39398;48.382;9.802;2022-07-30T00:46:59;93927.91;;;16.16;87.04
53522;BME280;39398;48.382;9.802;2022-07-30T00:48:03;93920.09;;;16.03;87.54
53522;BME280;39398;48.382;9.802;2022-07-30T00:49:05;93929.56;;;15.99;87.76
53522;BME280;39398;48.382;9.802;2022-07-30T00:50:11;93930.59;;;15.98;88.24
53522;BME280;39398;48.382;9.802;2022-07-30T00:51:12;93930.91;;;15.90;88.14
53522;BME280;39398;48.382;9.802;2022-07-30T00:52:14;93928.38;;;15.95;87.96
53522;BME280;39398;48.382;9.802;2022-07-30T00:53:15;93938.91;;;15.90;87.99
53522;BME280;39398;48.382;9.802;2022-07-30T00:54:17;93932.09;;;15.94;87.92
53522;BME280;39398;48.382;9.802;2022-07-30T00:55:19;93931.44;;;15.80;87.80
53522;BME280;39398;48.382;9.802;2022-07-30T00:56:20;93933.22;;;15.86;87.91
53522;BME280;39398;48.382;9.802;2022-07-30T00:57:21;93934.75;;;15.94;87.51
53522;BME280;39398;48.382;9.802;2022-07-30T00:58:23;93934.53;;;15.95;87.68
53522;BME280;39398;48.382;9.802;2022-07-30T00:59:24;93938.47;;;15.74;87.34
53522;BME280;39398;48.382;9.802;2022-07-30T01:00:26;93940.00;;;15.82;86.96
53522;BME280;39398;48.382;9.802;2022-07-30T01:01:30;93939.16;;;15.70;86.74
53522;BME280;39398;48.382;9.802;2022-07-30T01:02:31;93937.88;;;15.72;86.92
53522;BME280;39398;48.382;9.802;2022-07-30T01:03:36;93941.78;;;15.51;87.49
53522;BME280;39398;48.382;9.802;2022-07-30T01:04:37;93941.47;;;15.41;88.08
53522;BME280;39398;48.382;9.802;2022-07-30T01:05:39;93948.34;;;15.49;87.52
53522;BME280;39398;48.382;9.802;2022-07-30T01:06:40;93937.19;;;15.58;87.21
53522;BME280;39398;48.382;9.802;2022-07-30T01:07:42;93944.72;;;15.62;87.13
53522;BME280;39398;48.382;9.802;2022-07-30T01:08:44;93939.31;;;15.50;87.32
53522;BME280;39398;48.382;9.802;2022-07-30T01:09:45;93940.53;;;15.54;87.38
53522;BME280;39398;48.382;9.802;2022-07-30T01:10:49;93947.28;;;15.50;87.61
53522;BME280;39398;48.382;9.802;2022-07-30T01:11:50;93941.97;;;15.50;87.19
53522;BME280;39398;48.382;9.802;2022-07-30T01:12:52;93936.88;;;15.48;87.24
53522;BME280;39398;48.382;9.802;2022-07-30T01:13:53;93941.63;;;15.65;87.02
53522;BME280;39398;48.382;9.802;2022-07-30T01:14:56;93944.91;;;15.67;86.44
53522;BME280;39398;48.382;9.802;2022-07-30T01:15:58;93944.72;;;15.62;86.71
53522;BME280;39398;48.382;9.802;2022-07-30T01:16:59;93941.00;;;15.63;86.60
53522;BME280;39398;48.382;9.802;2022-07-30T01:18:04;93941.22;;;15.68;87.00
53522;BME280;39398;48.382;9.802;2022-07-30T01:19:11;93941.69;;;15.95;86.08
53522;BME280;39398;48.382;9.802;2022-07-30T01:20:17;93936.09;;;15.85;86.13
53522;BME280;39398;48.382;9.802;2022-07-30T01:21:27;93930.50;;;16.04;85.58
53522;BME280;39398;48.382;9.802;2022-07-30T01:22:36;93926.03;;;16.05;85.20
53522;BME280;39398;48.382;9.802;2022-07-30T01:23:42;93928.44;;;16.07;85.57
53522;BME280;39398;48.382;9.802;2022-07-30T01:24:51;93930.22;;;16.13;85.10
53522;BME280;39398;48.382;9.802;2022-07-30T01:26:01;93926.81;;;16.06;84.84
53522;BME280;39398;48.382;9.802;2022-07-30T01:27:05;93929.69;;;16.04;84.68
53522;BME280;39398;48.382;9.802;2022-07-30T01:28:10;93927.56;;;15.94;85.13
53522;BME280;39398;48.382;9.802;2022-07-30T01:29:12;93931.56;;;16.03;85.38
53522;BME280;39398;48.382;9.802;2022-07-30T01:30:18;93928.91;;;15.85;85.73
53522;BME280;39398;48.382;9.802;2022-07-30T01:31:20;93935.03;;;15.86;86.26
53522;BME280;39398;48.382;9.802;2022-07-30T01:32:25;93933.50;;;15.78;86.20
53522;BME280;39398;48.382;9.802;2022-07-30T01:33:27;93928.47;;;15.88;86.28
53522;BME280;39398;48.382;9.802;2022-07-30T01:34:31;93924.13;;;15.75;85.97
53522;BME280;39398;48.382;9.802;2022-07-30T01:35:34;93929.34;;;15.64;86.59
53522;BME280;39398;48.382;9.802;2022-07-30T01:36:37;93926.69;;;15.64;86.66
53522;BME280;39398;48.382;9.802;2022-07-30T01:37:39;93927.50;;;15.64;86.80
53522;BME280;39398;48.382;9.802;2022-07-30T01:38:43;93928.31;;;15.65;86.63
53522;BME280;39398;48.382;9.802;2022-07-30T01:39:46;93930.25;;;15.76;86.82
53522;BME280;39398;48.382;9.802;2022-07-30T01:40:48;93931.16;;;15.70;86.38
53522;BME280;39398;48.382;9.802;2022-07-30T01:41:53;93921.38;;;15.64;86.19
53522;BME280;39398;48.382;9.802;2022-07-30T01:42:56;93930.75;;;15.66;86.31
53522;BME280;39398;48.382;9.802;2022-07-30T01:44:00;93924.75;;;15.52;86.57
53522;BME280;39398;48.382;9.802;2022-07-30T01:45:03;93925.00;;;15.51;86.89
53522;BME280;39398;48.382;9.802;2022-07-30T01:46:07;93925.13;;;15.56;86.37
53522;BME280;39398;48.382;9.802;2022-07-30T01:47:10;93928.94;;;15.67;85.63
53522;BME280;39398;48.382;9.802;2022-07-30T01:48:16;93924.72;;;15.77;85.44
53522;BME280;39398;48.382;9.802;2022-07-30T01:49:19;93925.25;;;15.68;85.37
53522;BME280;39398;48.382;9.802;2022-07-30T01:50:22;93932.59;;;15.66;85.21
53522;BME280;39398;48.382;9.802;2022-07-30T01:51:24;93928.53;;;15.63;85.51
53522;BME280;39398;48.382;9.802;2022-07-30T01:52:35;93929.63;;;15.55;85.74
53522;BME280;39398;48.382;9.802;2022-07-30T01:53:39;93934.44;;;15.65;85.60
53522;BME280;39398;48.382;9.802;2022-07-30T01:54:43;93932.81;;;15.64;85.27
53522;BME280;39398;48.382;9.802;2022-07-30T01:55:47;93932.09;;;15.75;85.58
53522;BME280;39398;48.382;9.802;2022-07-30T01:56:50;93930.69;;;15.73;85.16
53522;BME280;39398;48.382;9.802;2022-07-30T01:57:56;93940.88;;;15.76;85.21
53522;BME280;39398;48.382;9.802;2022-07-30T01:59:00;93945.19;;;15.77;84.90
53522;BME280;39398;48.382;9.802;2022-07-30T02:00:05;93940.84;;;15.83;85.01
53522;BME280;39398;48.382;9.802;2022-07-30T02:01:07;93937.56;;;15.80;84.84
53522;BME280;39398;48.382;9.802;2022-07-30T02:02:09;93936.09;;;15.85;84.99
53522;BME280;39398;48.382;9.802;2022-07-30T02:03:10;93930.56;;;15.86;85.31
53522;BME280;39398;48.382;9.802;2022-07-30T02:04:12;93934.38;;;15.90;85.24
53522;BME280;39398;48.382;9.802;2022-07-30T02:05:14;93928.25;;;15.90;85.06
53522;BME280;39398;48.382;9.802;2022-07-30T02:06:19;93928.25;;;15.71;85.85
53522;BME280;39398;48.382;9.802;2022-07-30T02:07:23;93932.25;;;15.80;85.67
53522;BME280;39398;48.382;9.802;2022-07-30T02:08:34;93940.53;;;15.72;85.91
53522;BME280;39398;48.382;9.802;2022-07-30T02:09:40;93938.59;;;15.61;86.52
53522;BME280;39398;48.382;9.802;2022-07-30T02:10:50;93942.66;;;15.45;86.39
53522;BME280;39398;48.382;9.802;2022-07-30T02:11:53;93940.78;;;15.46;86.47
53522;BME280;39398;48.382;9.802;2022-07-30T02:13:02;93934.97;;;15.55;86.15
53522;BME280;39398;48.382;9.802;2022-07-30T02:14:07;93941.50;;;15.34;85.87
53522;BME280;39398;48.382;9.802;2022-07-30T02:15:13;93934.81;;;15.32;85.37
53522;BME280;39398;48.382;9.802;2022-07-30T02:16:21;93936.78;;;15.37;84.74
53522;BME280;39398;48.382;9.802;2022-07-30T02:17:28;93939.84;;;15.15;84.73
53522;BME280;39398;48.382;9.802;2022-07-30T02:18:39;93935.28;;;15.04;85.35
53522;BME280;39398;48.382;9.802;2022-07-30T02:19:48;93944.13;;;14.98;85.83
53522;BME280;39398;48.382;9.802;2022-07-30T02:20:58;93940.34;;;14.87;86.20
53522;BME280;39398;48.382;9.802;2022-07-30T02:22:05;93940.28;;;14.94;86.02
53522;BME280;39398;48.382;9.802;2022-07-30T02:23:10;93939.94;;;15.08;85.59
53522;BME280;39398;48.382;9.802;2022-07-30T02:24:15;93937.25;;;14.90;86.43
53522;BME280;39398;48.382;9.802;2022-07-30T02:25:20;93941.16;;;15.06;86.57
53522;BME280;39398;48.382;9.802;2022-07-30T02:26:23;93939.19;;;15.01;86.09
53522;BME280;39398;48.382;9.802;2022-07-30T02:27:30;93939.66;;;14.92;85.81
53522;BME280;39398;48.382;9.802;2022-07-30T02:28:37;93936.19;;;14.91;85.10
53522;BME280;39398;48.382;9.802;2022-07-30T02:29:40;93933.81;;;14.83;85.61
53522;BME280;39398;48.382;9.802;2022-07-30T02:30:46;93934.63;;;14.83;85.06
53522;BME280;39398;48.382;9.802;2022-07-30T02:31:49;93931.22;;;14.76;85.50
53522;BME280;39398;48.382;9.802;2022-07-30T02:32:53;93934.97;;;14.69;85.53
53522;BME280;39398;48.382;9.802;2022-07-30T02:33:57;93940.28;;;14.69;85.62
53522;BME280;39398;48.382;9.802;2022-07-30T02:35:07;93941.56;;;14.59;85.56
53522;BME280;39398;48.382;9.802;2022-07-30T02:36:10;93939.50;;;14.61;85.49
53522;BME280;39398;48.382;9.802;2022-07-30T02:37:13;93932.56;;;14.60;85.74
53522;BME280;39398;48.382;9.802;2022-07-30T02:38:16;93938.03;;;14.65;85.37
53522;BME280;39398;48.382;9.802;2022-07-30T02:39:19;93940.16;;;14.57;85.84
53522;BME280;39398;48.382;9.802;2022-07-30T02:40:22;93941.56;;;14.59;85.51
53522;BME280;39398;48.382;9.802;2022-07-30T02:41:26;93941.19;;;14.56;85.21
53522;BME280;39398;48.382;9.802;2022-07-30T02:42:29;93943.22;;;14.54;85.12
53522;BME280;39398;48.382;9.802;2022-07-30T02:43:34;93937.88;;;14.60;84.92
53522;BME280;39398;48.382;9.802;2022-07-30T02:44:37;93941.81;;;14.51;85.07
53522;BME280;39398;48.382;9.802;2022-07-30T02:45:41;93940.69;;;14.65;84.84
53522;BME280;39398;48.382;9.802;2022-07-30T02:46:44;93938.28;;;14.57;85.37
53522;BME280;39398;48.382;9.802;2022-07-30T02:47:52;93942.19;;;14.55;85.17
53522;BME280;39398;48.382;9.802;2022-07-30T02:48:55;93949.97;;;14.50;84.97
53522;BME280;39398;48.382;9.802;2022-07-30T02:49:58;93943.47;;;14.52;84.91
53522;BME280;39398;48.382;9.802;2022-07-30T02:51:02;93942.25;;;14.41;85.28
53522;BME280;39398;48.382;9.802;2022-07-30T02:52:05;93940.81;;;14.46;85.34
53522;BME280;39398;48.382;9.802;2022-07-30T02:53:09;93946.94;;;14.46;85.33
53522;BME280;39398;48.382;9.802;2022-07-30T02:54:13;93939.41;;;14.43;85.33
53522;BME280;39398;48.382;9.802;2022-07-30T02:55:15;93938.16;;;14.52;85.22
53522;BME280;39398;48.382;9.802;2022-07-30T02:56:19;93946.50;;;14.49;85.31
53522;BME280;39398;48.382;9.802;2022-07-30T02:57:22;93941.81;;;14.51;85.08
53522;BME280;39398;48.382;9.802;2022-07-30T02:58:24;93944.03;;;14.54;85.08
53522;BME280;39398;48.382;9.802;2022-07-30T02:59:29;93944.28;;;14.46;85.20
53522;BME280;39398;48.382;9.802;2022-07-30T03:00:32;93941.81;;;14.45;85.08
53522;BME280;39398;48.382;9.802;2022-07-30T03:01:35;93946.69;;;14.54;85.24
53522;BME280;39398;48.382;9.802;2022-07-30T03:02:38;93943.91;;;14.42;85.35
53522;BME280;39398;48.382;9.802;2022-07-30T03:03:44;93948.66;;;14.34;85.57
53522;BME280;39398;48.382;9.802;2022-07-30T03:04:47;93949.41;;;14.41;85.56
53522;BME280;39398;48.382;9.802;2022-07-30T03:05:50;93945.91;;;14.47;85.51
53522;BME280;39398;48.382;9.802;2022-07-30T03:06:53;93947.56;;;14.41;85.76
53522;BME280;39398;48.382;9.802;2022-07-30T03:07:57;93944.91;;;14.41;86.11
53522;BME280;39398;48.382;9.802;2022-07-30T03:09:01;93948.97;;;14.44;86.17
53522;BME280;39398;48.382;9.802;2022-07-30T03:10:05;93946.94;;;14.46;85.60
53522;BME280;39398;48.382;9.802;2022-07-30T03:11:09;93949.41;;;14.41;85.64
53522;BME280;39398;48.382;9.802;2022-07-30T03:12:13;93943.34;;;14.34;85.88
53522;BME280;39398;48.382;9.802;2022-07-30T03:13:15;93938.97;;;14.46;85.71
53522;BME280;39398;48.382;9.802;2022-07-30T03:14:18;93940.22;;;14.43;85.57
53522;BME280;39398;48.382;9.802;2022-07-30T03:15:21;93939.59;;;14.41;85.44
53522;BME280;39398;48.382;9.802;2022-07-30T03:16:23;93935.50;;;14.46;85.32
53522;BME280;39398;48.382;9.802;2022-07-30T03:17:30;93943.22;;;14.54;85.15
53522;BME280;39398;48.382;9.802;2022-07-30T03:18:33;93933.84;;;14.45;85.36
53522;BME280;39398;48.382;9.802;2022-07-30T03:19:37;93936.69;;;14.50;85.45
53522;BME280;39398;48.382;9.802;2022-07-30T03:20:43;93943.22;;;14.54;85.17
53522;BME280;39398;48.382;9.802;2022-07-30T03:21:46;93937.72;;;14.49;85.49
53522;BME280;39398;48.382;9.802;2022-07-30T03:22:52;93944.06;;;14.48;85.41
53522;BME280;39398;48.382;9.802;2022-07-30T03:23:55;93949.41;;;14.41;85.40
53522;BME280;39398;48.382;9.802;2022-07-30T03:24:58;93948.19;;;14.43;85.49
53522;BME280;39398;48.382;9.802;2022-07-30T03:26:01;93948.13;;;14.57;85.23
53522;BME280;39398;48.382;9.802;2022-07-30T03:27:03;93952.03;;;14.48;85.22
53522;BME280;39398;48.382;9.802;2022-07-30T03:28:06;93950.03;;;14.43;85.83
53522;BME280;39398;48.382;9.802;2022-07-30T03:29:09;93945.53;;;14.43;85.77
53522;BME280;39398;48.382;9.802;2022-07-30T03:30:11;93945.91;;;14.47;85.98
53522;BME280;39398;48.382;9.802;2022-07-30T03:31:15;93947.97;;;14.52;85.86
53522;BME280;39398;48.382;9.802;2022-07-30T03:32:18;93948.13;;;14.57;85.63
53522;BME280;39398;48.382;9.802;2022-07-30T03:33:27;93948.28;;;14.62;85.46
53522;BME280;39398;48.382;9.802;2022-07-30T03:34:40;93949.97;;;14.56;86.16
53522;BME280;39398;48.382;9.802;2022-07-30T03:35:42;93947.06;;;14.58;86.15
53522;BME280;39398;48.382;9.802;2022-07-30T03:36:43;93951.97;;;14.61;86.44
53522;BME280;39398;48.382;9.802;2022-07-30T03:37:45;93949.53;;;14.59;86.53
53522;BME280;39398;48.382;9.802;2022-07-30T03:38:48;93951.53;;;14.64;86.49
53522;BME280;39398;48.382;9.802;2022-07-30T03:39:50;93947.31;;;14.56;86.84
53522;BME280;39398;48.382;9.802;2022-07-30T03:40:52;93950.53;;;14.65;86.32
53522;BME280;39398;48.382;9.802;2022-07-30T03:41:53;93953.75;;;14.67;86.17
53522;BME280;39398;48.382;9.802;2022-07-30T03:42:58;93952.31;;;14.71;86.25
53522;BME280;39398;48.382;9.802;2022-07-30T03:44:00;93944.78;;;14.68;86.11
53522;BME280;39398;48.382;9.802;2022-07-30T03:45:04;93956.25;;;14.62;86.50
53522;BME280;39398;48.382;9.802;2022-07-30T03:46:06;93955.03;;;14.64;86.56
53522;BME280;39398;48.382;9.802;2022-07-30T03:47:11;93953.31;;;14.70;86.59
53522;BME280;39398;48.382;9.802;2022-07-30T03:48:14;93957.22;;;14.68;86.79
53522;BME280;39398;48.382;9.802;2022-07-30T03:49:16;93954.56;;;14.68;87.01
53522;BME280;39398;48.382;9.802;2022-07-30T03:50:18;93949.72;;;14.64;87.54
53522;BME280;39398;48.382;9.802;2022-07-30T03:51:20;93952.38;;;14.58;87.60
53522;BME280;39398;48.382;9.802;2022-07-30T03:52:22;93958.75;;;14.50;87.96
53522;BME280;39398;48.382;9.802;2022-07-30T03:53:24;93959.53;;;14.57;88.20
53522;BME280;39398;48.382;9.802;2022-07-30T03:54:25;93956.09;;;14.57;88.05
53522;BME280;39398;48.382;9.802;2022-07-30T03:55:27;93966.09;;;14.61;87.94
53522;BME280;39398;48.382;9.802;2022-07-30T03:56:29;93962.22;;;14.57;87.95
53522;BME280;39398;48.382;9.802;2022-07-30T03:57:30;93966.47;;;14.65;87.87
53522;BME280;39398;48.382;9.802;2022-07-30T03:58:32;93973.63;;;14.64;87.93
53522;BME280;39398;48.382;9.802;2022-07-30T03:59:37;93965.84;;;14.63;88.05
53522;BME280;39398;48.382;9.802;2022-07-30T04:00:39;93967.66;;;14.69;87.95
53522;BME280;39398;48.382;9.802;2022-07-30T04:01:41;93968.47;;;14.70;87.51
53522;BME280;39398;48.382;9.802;2022-07-30T04:02:45;93971.34;;;14.68;87.15
53522;BME280;39398;48.382;9.802;2022-07-30T04:03:47;93972.63;;;14.59;87.47
53522;BME280;39398;48.382;9.802;2022-07-30T04:04:49;93972.41;;;14.60;87.49
53522;BME280;39398;48.382;9.802;2022-07-30T04:05:50;93974.25;;;14.60;87.68
53522;BME280;39398;48.382;9.802;2022-07-30T04:06:51;93976.09;;;14.59;87.50
53522;BME280;39398;48.382;9.802;2022-07-30T04:07:53;93980.94;;;14.69;87.50
53522;BME280;39398;48.382;9.802;2022-07-30T04:08:55;93982.41;;;14.65;87.62
53522;BME280;39398;48.382;9.802;2022-07-30T04:09:56;93982.97;;;14.67;87.41
53522;BME280;39398;48.382;9.802;2022-07-30T04:10:58;93978.47;;;14.74;87.06
53522;BME280;39398;48.382;9.802;2022-07-30T04:11:59;93980.28;;;14.74;87.04
53522;BME280;39398;48.382;9.802;2022-07-30T04:13:00;93982.94;;;14.74;87.18
53522;BME280;39398;48.382;9.802;2022-07-30T04:14:05;93985.00;;;14.72;87.33
53522;BME280;39398;48.382;9.802;2022-07-30T04:15:08;93987.50;;;14.67;87.60
53522;BME280;39398;48.382;9.802;2022-07-30T04:16:36;93990.09;;;14.73;87.51
53522;BME280;39398;48.382;9.802;2022-07-30T04:17:46;93995.41;;;14.73;87.27
53522;BME280;39398;48.382;9.802;2022-07-30T04:18:50;94000.53;;;14.75;87.22
53522;BME280;39398;48.382;9.802;2022-07-30T04:19:58;94000.16;;;14.71;87.19
53522;BME280;39398;48.382;9.802;2022-07-30T04:21:02;94000.78;;;14.67;87.06
53522;BME280;39398;48.382;9.802;2022-07-30T04:22:04;93999.72;;;14.68;87.30
53522;BME280;39398;48.382;9.802;2022-07-30T04:23:08;94001.16;;;14.70;87.09
53522;BME280;39398;48.382;9.802;2022-07-30T04:24:11;94008.94;;;14.72;87.29
53522;BME280;39398;48.382;9.802;2022-07-30T04:25:14;94008.66;;;14.80;87.15
53522;BME280;39398;48.382;9.802;2022-07-30T04:26:25;94013.09;;;14.86;87.10
53522;BME280;39398;48.382;9.802;2022-07-30T04:27:27;94006.16;;;14.85;86.57
53522;BME280;39398;48.382;9.802;2022-07-30T04:28:28;94012.97;;;14.81;86.96
53522;BME280;39398;48.382;9.802;2022-07-30T04:29:30;94009.25;;;14.82;86.78
53522;BME280;39398;48.382;9.802;2022-07-30T04:30:32;94012.56;;;14.77;86.82
53522;BME280;39398;48.382;9.802;2022-07-30T04:31:34;94012.56;;;14.77;86.81
53522;BME280;39398;48.382;9.802;2022-07-30T04:32:41;94017.06;;;14.77;86.52
53522;BME280;39398;48.382;9.802;2022-07-30T04:33:45;94009.91;;;14.77;86.39
53522;BME280;39398;48.382;9.802;2022-07-30T04:34:47;94018.69;;;14.78;85.98
53522;BME280;39398;48.382;9.802;2022-07-30T04:35:49;94021.94;;;14.80;86.34
53522;BME280;39398;48.382;9.802;2022-07-30T04:36:52;94021.13;;;14.79;86.26
53522;BME280;39398;48.382;9.802;2022-07-30T04:37:54;94019.66;;;14.83;85.86
53522;BME280;39398;48.382;9.802;2022-07-30T04:38:55;94027.22;;;14.86;86.15
53522;BME280;39398;48.382;9.802;2022-07-30T04:39:57;94019.13;;;14.75;85.77
53522;BME280;39398;48.382;9.802;2022-07-30T04:40:58;94026.28;;;14.74;85.86
53522;BME280;39398;48.382;9.802;2022-07-30T04:42:00;94023.84;;;14.73;85.38
53522;BME280;39398;48.382;9.802;2022-07-30T04:43:01;94024.59;;;14.80;85.43
53522;BME280;39398;48.382;9.802;2022-07-30T04:44:03;94034.47;;;14.73;85.58
53522;BME280;39398;48.382;9.802;2022-07-30T04:45:06;94033.00;;;14.77;85.56
53522;BME280;39398;48.382;9.802;2022-07-30T04:46:12;94030.75;;;14.74;85.62
53522;BME280;39398;48.382;9.802;2022-07-30T04:47:14;94031.19;;;14.77;85.65
53522;BME280;39398;48.382;9.802;2022-07-30T04:48:15;94031.38;;;14.76;85.41
53522;BME280;39398;48.382;9.802;2022-07-30T04:49:19;94029.09;;;14.79;85.33
53522;BME280;39398;48.382;9.802;2022-07-30T04:50:26;94036.25;;;14.79;84.97
53522;BME280;39398;48.382;9.802;2022-07-30T04:51:30;94032.78;;;14.78;85.11
53522;BME280;39398;48.382;9.802;2022-07-30T04:52:32;94029.91;;;14.80;84.58
53522;BME280;39398;48.382;9.802;2022-07-30T04:53:34;94032.00;;;14.78;84.63
53522;BME280;39398;48.382;9.802;2022-07-30T04:54:39;94040.91;;;14.83;84.20
53522;BME280;39398;48.382;9.802;2022-07-30T04:55:42;94038.31;;;14.77;84.37
53522;BME280;39398;48.382;9.802;2022-07-30T04:56:46;94038.72;;;14.74;84.04
53522;BME280;39398;48.382;9.802;2022-07-30T04:57:53;94040.97;;;14.77;84.15
53522;BME280;39398;48.382;9.802;2022-07-30T04:58:57;94039.34;;;14.76;84.04
53522;BME280;39398;48.382;9.802;2022-07-30T04:59:59;94043.63;;;14.77;84.15
53522;BME280;39398;48.382;9.802;2022-07-30T05:01:01;94033.84;;;14.71;84.47
53522;BME280;39398;48.382;9.802;2022-07-30T05:02:05;94036.31;;;14.72;84.41
53522;BME280;39398;48.382;9.802;2022-07-30T05:03:11;94034.41;;;14.79;83.99
53522;BME280;39398;48.382;9.802;2022-07-30T05:04:14;94033.00;;;14.77;83.92
53522;BME280;39398;48.382;9.802;2022-07-30T05:05:18;94032.84;;;14.72;83.92
53522;BME280;39398;48.382;9.802;2022-07-30T05:06:21;94040.25;;;14.63;84.70
53522;BME280;39398;48.382;9.802;2022-07-30T05:07:22;94040.63;;;14.67;84.60
53522;BME280;39398;48.382;9.802;2022-07-30T05:08:25;94038.00;;;14.60;84.69
53522;BME280;39398;48.382;9.802;2022-07-30T05:09:27;94037.41;;;14.58;84.54
53522;BME280;39398;48.382;9.802;2022-07-30T05:10:29;94036.97;;;14.61;84.61
53522;BME280;39398;48.382;9.802;2022-07-30T05:11:31;94036.16;;;14.60;84.73
53522;BME280;39398;48.382;9.802;2022-07-30T05:12:32;94035.88;;;14.75;84.44
53522;BME280;39398;48.382;9.802;2022-07-30T05:13:34;94048.50;;;14.80;84.56
53522;BME280;39398;48.382;9.802;2022-07-30T05:14:38;94045.63;;;14.88;84.85
53522;BME280;39398;48.382;9.802;2022-07-30T05:15:41;94039.22;;;14.96;84.54
53522;BME280;39398;48.382;9.802;2022-07-30T05:16:42;94043.72;;;14.95;84.24
53522;BME280;39398;48.382;9.802;2022-07-30T05:17:45;94041.81;;;15.02;84.23
53522;BME280;39398;48.382;9.802;2022-07-30T05:18:46;94046.56;;;15.00;83.95
53522;BME280;39398;48.382;9.802;2022-07-30T05:19:48;94051.00;;;15.06;84.42
53522;BME280;39398;48.382;9.802;2022-07-30T05:20:51;94052.97;;;15.18;84.51
53522;BME280;39398;48.382;9.802;2022-07-30T05:21:53;94050.09;;;15.19;84.18
53522;BME280;39398;48.382;9.802;2022-07-30T05:22:54;94056.31;;;15.31;83.64
53522;BME280;39398;48.382;9.802;2022-07-30T05:23:56;94058.34;;;15.36;83.36
53522;BME280;39398;48.382;9.802;2022-07-30T05:24:57;94054.25;;;15.33;82.08
53522;BME280;39398;48.382;9.802;2022-07-30T05:25:59;94054.59;;;15.44;82.39
53522;BME280;39398;48.382;9.802;2022-07-30T05:27:00;94059.03;;;15.50;81.69
53522;BME280;39398;48.382;9.802;2022-07-30T05:28:03;94056.47;;;15.62;82.06
53522;BME280;39398;48.382;9.802;2022-07-30T05:29:04;94061.38;;;15.65;82.42
53522;BME280;39398;48.382;9.802;2022-07-30T05:30:08;94066.69;;;15.65;82.57
53522;BME280;39398;48.382;9.802;2022-07-30T05:31:12;94061.34;;;15.71;81.52
53522;BME280;39398;48.382;9.802;2022-07-30T05:32:18;94066.59;;;15.78;81.22
53522;BME280;39398;48.382;9.802;2022-07-30T05:33:21;94061.69;;;15.75;80.75
53522;BME280;39398;48.382;9.802;2022-07-30T05:34:42;94063.06;;;15.84;79.95
53522;BME280;39398;48.382;9.802;2022-07-30T05:35:51;94062.63;;;15.87;80.40